createdAt,value
2018-09-11T00:00:20.802Z,17.90
2018-09-11T00:02:49.595Z,17.90
2018-09-11T00:05:20.154Z,17.90
2018-09-11T00:07:48.851Z,17.90
2018-09-11T00:10:17.620Z,17.90
2018-09-11T00:12:46.827Z,17.90
2018-09-11T00:15:15.635Z,17.80
2018-09-11T00:17:44.194Z,17.80
2018-09-11T00:20:12.979Z,17.80
2018-09-11T00:22:41.738Z,17.80
2018-09-11T00:25:10.421Z,17.70
2018-09-11T00:27:39.225Z,17.70
2018-09-11T00:30:08.170Z,17.70
2018-09-11T00:32:36.800Z,17.80
2018-09-11T00:35:05.646Z,17.90
2018-09-11T00:37:35.069Z,17.70
2018-09-11T00:40:03.897Z,17.80
2018-09-11T00:42:33.449Z,17.80
2018-09-11T00:45:02.208Z,17.80
2018-09-11T00:47:30.983Z,17.60
2018-09-11T00:49:59.940Z,17.60
2018-09-11T00:52:28.591Z,17.60
2018-09-11T00:54:57.265Z,17.70
2018-09-11T00:57:25.937Z,17.70
2018-09-11T00:59:54.681Z,17.70
2018-09-11T01:02:24.162Z,17.70
2018-09-11T01:04:53.052Z,17.70
2018-09-11T01:07:23.355Z,17.70
2018-09-11T01:09:52.098Z,17.70
2018-09-11T01:12:21.184Z,17.60
2018-09-11T01:14:49.853Z,17.50
2018-09-11T01:17:18.497Z,17.40
2018-09-11T01:19:47.337Z,17.40
2018-09-11T01:22:16.022Z,17.40
2018-09-11T01:24:44.637Z,17.40
2018-09-11T01:27:13.412Z,17.30
2018-09-11T01:29:42.098Z,17.30
2018-09-11T01:32:10.815Z,17.30
2018-09-11T01:34:39.519Z,17.30
2018-09-11T01:37:08.133Z,17.20
2018-09-11T01:39:36.693Z,17.20
2018-09-11T01:42:05.454Z,18.70
2018-09-11T01:44:33.966Z,17.20
2018-09-11T01:47:04.773Z,17.10
2018-09-11T01:49:33.588Z,17.20
2018-09-11T01:52:02.297Z,17.20
2018-09-11T01:54:31.723Z,17.10
2018-09-11T01:57:00.415Z,17.20
2018-09-11T01:59:29.138Z,17.10
2018-09-11T02:01:57.969Z,17.20
2018-09-11T02:04:26.912Z,17.10
2018-09-11T02:06:55.994Z,17.10
2018-09-11T02:09:24.681Z,17.10
2018-09-11T02:11:55.400Z,17.10
2018-09-11T02:14:24.210Z,17.10
2018-09-11T02:16:52.994Z,17.00
2018-09-11T02:19:21.871Z,17.00
2018-09-11T02:21:50.626Z,16.90
2018-09-11T02:24:19.450Z,16.90
2018-09-11T02:26:48.297Z,16.90
2018-09-11T02:29:16.914Z,16.80
2018-09-11T02:31:45.568Z,16.80
2018-09-11T02:34:14.359Z,16.80
2018-09-11T02:36:43.143Z,16.70
2018-09-11T02:39:12.818Z,16.70
2018-09-11T02:41:41.539Z,16.70
2018-09-11T02:44:11.225Z,16.60
2018-09-11T02:46:40.141Z,16.70
2018-09-11T02:49:09.020Z,16.60
2018-09-11T02:51:37.917Z,16.60
2018-09-11T02:54:06.586Z,16.70
2018-09-11T02:56:35.315Z,16.60
2018-09-11T02:59:03.979Z,16.60
2018-09-11T03:01:32.668Z,16.60
2018-09-11T03:04:01.367Z,16.60
2018-09-11T03:06:30.035Z,16.50
2018-09-11T03:08:59.417Z,16.50
2018-09-11T03:11:28.214Z,16.50
2018-09-11T03:13:56.835Z,16.60
2018-09-11T03:16:25.496Z,16.60
2018-09-11T03:18:54.504Z,16.60
2018-09-11T03:21:23.213Z,16.60
2018-09-11T03:23:51.814Z,16.60
2018-09-11T03:26:20.550Z,16.60
2018-09-11T03:28:49.203Z,16.60
2018-09-11T03:31:17.921Z,16.70
2018-09-11T03:33:46.563Z,16.60
2018-09-11T03:36:15.196Z,16.60
2018-09-11T03:38:44.008Z,16.60
2018-09-11T03:41:12.766Z,16.50
2018-09-11T03:43:41.449Z,16.50
2018-09-11T03:46:10.098Z,16.50
2018-09-11T03:48:38.939Z,16.60
2018-09-11T03:51:07.788Z,16.60
2018-09-11T03:53:36.443Z,16.60
2018-09-11T03:57:34.446Z,16.50
2018-09-11T04:00:05.180Z,16.50
2018-09-11T04:02:33.871Z,16.50
2018-09-11T04:05:02.562Z,16.60
2018-09-11T04:07:31.326Z,16.60
2018-09-11T04:10:00.039Z,16.50
2018-09-11T04:12:28.848Z,17.30
2018-09-11T04:14:57.547Z,16.40
2018-09-11T04:17:31.406Z,16.40
2018-09-11T04:19:59.942Z,16.40
2018-09-11T04:22:28.854Z,16.30
2018-09-11T04:24:57.517Z,16.30
2018-09-11T04:27:26.211Z,16.30
2018-09-11T04:29:55.105Z,16.30
2018-09-11T04:32:23.863Z,16.30
2018-09-11T04:34:57.621Z,16.30
2018-09-11T04:37:31.220Z,16.30
2018-09-11T04:40:00.112Z,16.30
2018-09-11T04:42:28.976Z,16.30
2018-09-11T04:44:57.694Z,16.30
2018-09-11T04:47:26.358Z,16.30
2018-09-11T04:49:55.028Z,16.30
2018-09-11T04:52:23.918Z,16.30
2018-09-11T04:54:52.627Z,16.40
2018-09-11T04:57:21.345Z,14.90
2018-09-11T04:59:49.992Z,16.00
2018-09-11T05:02:18.706Z,16.50
2018-09-11T05:04:47.316Z,15.60
2018-09-11T05:07:16.066Z,15.20
2018-09-11T05:09:44.773Z,16.70
2018-09-11T05:12:13.463Z,16.70
2018-09-11T05:14:42.211Z,16.80
2018-09-11T05:17:10.838Z,16.80
2018-09-11T05:19:39.519Z,16.80
2018-09-11T05:22:08.365Z,16.70
2018-09-11T05:24:39.425Z,16.70
2018-09-11T05:27:08.021Z,16.70
2018-09-11T05:29:37.289Z,16.80
2018-09-11T05:32:05.969Z,16.70
2018-09-11T05:34:36.291Z,16.80
2018-09-11T05:37:05.110Z,16.80
2018-09-11T05:39:33.811Z,16.80
2018-09-11T05:42:02.776Z,16.80
2018-09-11T05:44:31.451Z,16.80
2018-09-11T05:47:00.245Z,16.80
2018-09-11T05:49:28.896Z,17.00
2018-09-11T05:51:58.750Z,17.80
2018-09-11T05:54:27.653Z,16.20
2018-09-11T05:56:56.338Z,17.20
2018-09-11T05:59:25.185Z,17.30
2018-09-11T06:01:54.002Z,17.40
2018-09-11T06:04:22.695Z,17.50
2018-09-11T06:06:51.395Z,17.50
2018-09-11T06:09:20.173Z,17.60
2018-09-11T06:11:48.887Z,17.50
2018-09-11T06:14:17.577Z,17.50
2018-09-11T06:16:46.320Z,17.50
2018-09-11T06:19:15.783Z,17.50
2018-09-11T06:21:44.472Z,17.20
2018-09-11T06:24:13.263Z,17.60
2018-09-11T06:26:41.963Z,17.70
2018-09-11T06:29:10.855Z,17.90
2018-09-11T06:31:39.496Z,17.90
2018-09-11T06:34:09.147Z,18.00
2018-09-11T06:36:38.215Z,18.10
2018-09-11T06:39:08.570Z,18.20
2018-09-11T06:41:37.454Z,18.20
2018-09-11T06:44:07.092Z,18.30
2018-09-11T06:46:36.064Z,18.30
2018-09-11T06:49:05.187Z,18.30
2018-09-11T06:51:33.836Z,18.30
2018-09-11T06:54:02.732Z,17.70
2018-09-11T06:56:31.534Z,18.30
2018-09-11T06:59:02.975Z,18.40
2018-09-11T07:01:31.984Z,18.40
2018-09-11T07:04:01.208Z,18.40
2018-09-11T07:06:30.167Z,18.50
2018-09-11T07:08:59.012Z,18.40
2018-09-11T07:11:27.793Z,18.40
2018-09-11T07:13:56.556Z,18.50
2018-09-11T07:16:25.255Z,18.50
2018-09-11T07:18:54.120Z,18.50
2018-09-11T07:21:23.298Z,18.50
2018-09-11T07:23:52.874Z,18.50
2018-09-11T07:26:21.840Z,18.60
2018-09-11T07:28:51.547Z,18.60
2018-09-11T07:31:20.259Z,17.70
2018-09-11T07:33:49.360Z,18.60
2018-09-11T07:37:51.847Z,18.70
2018-09-11T07:40:20.701Z,18.80
2018-09-11T07:42:49.568Z,19.10
2018-09-11T07:45:18.627Z,19.20
2018-09-11T07:47:47.492Z,19.40
2018-09-11T07:50:16.272Z,19.50
2018-09-11T07:52:45.177Z,19.80
2018-09-11T07:55:14.758Z,19.90
2018-09-11T07:57:43.570Z,20.00
2018-09-11T08:00:13.291Z,20.10
2018-09-11T08:02:43.211Z,20.20
2018-09-11T08:05:17.773Z,20.40
2018-09-11T08:07:47.355Z,19.90
2018-09-11T08:10:17.529Z,20.70
2018-09-11T08:12:49.607Z,22.10
2018-09-11T08:15:25.294Z,21.00
2018-09-11T08:17:54.046Z,21.00
2018-09-11T08:20:23.915Z,21.10
2018-09-11T08:22:53.340Z,21.10
2018-09-11T08:25:23.118Z,19.50
2018-09-11T08:27:52.670Z,21.30
2018-09-11T08:30:21.551Z,21.40
2018-09-11T08:32:50.584Z,21.40
2018-09-11T08:35:45.072Z,21.60
2018-09-11T08:39:03.469Z,21.60
2018-09-11T08:42:30.343Z,21.80
2018-09-11T08:48:36.385Z,21.90
2018-09-11T08:51:27.342Z,22.00
2018-09-11T08:54:32.900Z,22.00
2018-09-11T09:00:21.472Z,22.10
2018-09-11T09:03:29.181Z,22.20
2018-09-11T09:05:59.701Z,22.10
2018-09-11T09:08:28.927Z,22.00
2018-09-11T09:10:57.674Z,22.00
2018-09-11T09:13:30.147Z,20.40
2018-09-11T09:16:27.781Z,22.20
2018-09-11T09:18:57.231Z,22.10
2018-09-11T09:21:41.694Z,22.10
2018-09-11T09:27:12.651Z,22.30
2018-09-11T09:29:42.345Z,22.20
2018-09-11T09:32:11.497Z,22.20
2018-09-11T09:34:42.054Z,22.30
2018-09-11T09:37:11.268Z,23.50
2018-09-11T09:39:40.008Z,22.60
2018-09-11T09:42:08.760Z,22.80
2018-09-11T09:44:38.474Z,22.90
2018-09-11T09:47:07.903Z,23.10
2018-09-11T09:49:36.588Z,23.30
2018-09-11T09:52:06.485Z,23.40
2018-09-11T09:54:35.242Z,23.50
2018-09-11T09:57:04.271Z,23.70
2018-09-11T09:59:33.027Z,23.80
2018-09-11T10:02:19.618Z,23.90
2018-09-11T10:04:57.525Z,24.00
2018-09-11T10:07:26.736Z,24.20
2018-09-11T10:09:56.406Z,24.40
2018-09-11T10:12:27.374Z,25.00
2018-09-11T10:15:09.104Z,25.70
2018-09-11T10:17:48.617Z,25.80
2018-09-11T10:20:31.615Z,25.70
2018-09-11T10:23:13.415Z,25.90
2018-09-11T10:25:48.710Z,26.40
2018-09-11T10:28:17.935Z,26.90
2018-09-11T10:30:46.788Z,27.00
2018-09-11T10:33:15.599Z,27.10
2018-09-11T10:35:45.032Z,27.10
2018-09-11T10:38:13.910Z,27.10
2018-09-11T10:40:42.815Z,26.70
2018-09-11T10:43:14.544Z,26.80
2018-09-11T10:45:45.251Z,27.00
2018-09-11T10:48:16.688Z,27.30
2018-09-11T10:50:45.538Z,27.60
2018-09-11T10:53:14.279Z,28.20
2018-09-11T10:55:43.079Z,28.90
2018-09-11T10:58:13.919Z,28.90
2018-09-11T11:00:43.092Z,28.70
2018-09-11T11:03:12.215Z,28.40
2018-09-11T11:05:41.166Z,28.20
2018-09-11T11:08:10.116Z,28.10
2018-09-11T11:10:44.835Z,28.60
2018-09-11T11:13:22.925Z,28.70
2018-09-11T11:15:58.779Z,29.20
2018-09-11T11:18:27.762Z,28.60
2018-09-11T11:20:56.511Z,28.20
2018-09-11T11:23:25.716Z,28.30
2018-09-11T11:25:56.428Z,28.80
2018-09-11T11:28:25.621Z,28.70
2018-09-11T11:30:54.766Z,28.30
2018-09-11T11:33:23.766Z,27.90
2018-09-11T11:35:52.576Z,27.90
2018-09-11T11:38:21.880Z,28.70
2018-09-11T11:40:50.954Z,29.10
2018-09-11T11:43:21.269Z,29.60
2018-09-11T11:45:50.822Z,30.20
2018-09-11T11:48:21.461Z,30.80
2018-09-11T11:50:51.521Z,31.20
2018-09-11T11:53:20.625Z,31.80
2018-09-11T11:55:49.545Z,32.40
2018-09-11T11:58:18.297Z,32.20
2018-09-11T12:00:50.064Z,32.30
2018-09-11T12:03:20.342Z,32.50
2018-09-11T12:05:49.969Z,32.20
2018-09-11T12:08:18.714Z,31.90
2018-09-11T12:10:47.486Z,31.80
2018-09-11T12:13:16.207Z,32.00
2018-09-11T12:15:50.490Z,32.30
2018-09-11T12:18:21.848Z,32.80
2018-09-11T12:20:57.601Z,32.90
2018-09-11T12:23:27.324Z,32.90
2018-09-11T12:26:01.931Z,32.10
2018-09-11T12:28:30.642Z,32.80
2018-09-11T12:30:59.653Z,33.50
2018-09-11T12:33:30.641Z,33.50
2018-09-11T12:36:31.381Z,33.00
2018-09-11T12:39:16.612Z,33.00
2018-09-11T12:41:45.549Z,34.00
2018-09-11T12:44:14.396Z,33.70
2018-09-11T12:46:43.688Z,33.10
2018-09-11T12:49:12.160Z,33.30
2018-09-11T12:51:40.854Z,33.00
2018-09-11T12:54:09.634Z,33.20
2018-09-11T12:56:38.354Z,33.30
2018-09-11T12:59:08.379Z,33.10
2018-09-11T13:01:37.202Z,32.90
2018-09-11T13:04:06.138Z,33.30
2018-09-11T13:06:35.249Z,33.50
2018-09-11T13:09:05.712Z,33.30
2018-09-11T13:11:34.423Z,33.30
2018-09-11T13:14:03.268Z,33.70
2018-09-11T13:16:32.060Z,34.10
2018-09-11T13:19:01.255Z,34.10
2018-09-11T13:21:36.769Z,33.80
2018-09-11T13:24:16.406Z,34.10
2018-09-11T13:26:45.478Z,33.70
2018-09-11T13:29:14.038Z,33.60
2018-09-11T13:31:49.131Z,34.20
2018-09-11T13:34:24.221Z,34.70
2018-09-11T13:36:57.598Z,34.50
2018-09-11T13:39:26.634Z,34.50
2018-09-11T13:41:57.532Z,34.60
2018-09-11T13:44:26.230Z,33.90
2018-09-11T13:46:55.660Z,33.50
2018-09-11T13:49:25.660Z,32.70
2018-09-11T13:51:54.548Z,33.10
2018-09-11T13:54:23.256Z,32.70
2018-09-11T13:56:51.951Z,32.60
2018-09-11T13:59:20.763Z,32.80
2018-09-11T14:01:49.531Z,32.80
2018-09-11T14:04:18.359Z,32.40
2018-09-11T14:06:47.035Z,31.40
2018-09-11T14:09:16.129Z,30.70
2018-09-11T14:11:45.551Z,30.00
2018-09-11T14:14:14.278Z,29.60
2018-09-11T14:16:43.114Z,29.20
2018-09-11T14:19:11.788Z,29.00
2018-09-11T14:21:42.527Z,29.00
2018-09-11T14:24:11.097Z,28.90
2018-09-11T14:26:39.980Z,28.80
2018-09-11T14:29:08.837Z,28.70
2018-09-11T14:31:37.484Z,28.70
2018-09-11T14:34:06.212Z,28.50
2018-09-11T14:36:34.882Z,28.50
2018-09-11T14:39:04.416Z,28.50
2018-09-11T14:41:33.122Z,28.50
2018-09-11T14:44:10.249Z,28.30
2018-09-11T14:46:46.728Z,28.10
2018-09-11T14:49:15.601Z,28.10
2018-09-11T14:51:46.423Z,28.00
2018-09-11T14:54:15.265Z,28.00
2018-09-11T14:56:44.546Z,28.00
2018-09-11T14:59:16.341Z,27.90
2018-09-11T15:01:45.089Z,27.90
2018-09-11T15:04:14.461Z,27.80
2018-09-11T15:06:46.131Z,27.80
2018-09-11T15:09:15.354Z,27.70
2018-09-11T15:11:44.107Z,27.70
2018-09-11T15:14:18.956Z,27.70
2018-09-11T15:16:48.288Z,27.70
2018-09-11T15:19:17.302Z,27.60
2018-09-11T15:21:47.146Z,27.60
2018-09-11T15:24:27.644Z,27.80
2018-09-11T15:29:33.294Z,27.80
2018-09-11T15:32:04.264Z,27.90
2018-09-11T15:34:35.315Z,28.00
2018-09-11T15:37:09.710Z,27.90
2018-09-11T15:39:38.676Z,27.80
2018-09-11T15:42:11.115Z,27.70
2018-09-11T15:44:40.704Z,27.50
2018-09-11T15:47:12.491Z,27.60
2018-09-11T15:49:44.722Z,27.50
2018-09-11T15:52:13.682Z,27.40
2018-09-11T15:54:42.511Z,26.10
2018-09-11T15:57:11.461Z,27.40
2018-09-11T15:59:48.217Z,27.40
2018-09-11T16:02:25.868Z,27.40
2018-09-11T16:05:05.498Z,27.40
2018-09-11T16:10:26.164Z,27.30
2018-09-11T16:12:55.014Z,27.20
2018-09-11T16:15:23.965Z,27.10
2018-09-11T16:17:52.705Z,27.10
2018-09-11T16:20:21.581Z,27.10
2018-09-11T16:22:50.233Z,27.00
2018-09-11T16:25:19.030Z,27.80
2018-09-11T16:27:47.838Z,26.80
2018-09-11T16:30:16.714Z,26.70
2018-09-11T16:32:45.474Z,26.60
2018-09-11T16:35:14.457Z,26.60
2018-09-11T16:37:43.461Z,26.60
2018-09-11T16:40:13.965Z,26.60
2018-09-11T16:42:44.741Z,26.50
2018-09-11T16:45:13.932Z,26.50
2018-09-11T16:47:42.861Z,26.50
2018-09-11T16:50:11.827Z,26.40
2018-09-11T16:52:43.378Z,26.30
2018-09-11T16:55:12.211Z,26.30
2018-09-11T16:57:43.979Z,26.20
2018-09-11T17:00:12.776Z,26.20
2018-09-11T17:02:41.421Z,26.10
2018-09-11T17:05:10.287Z,26.00
2018-09-11T17:07:39.014Z,25.90
2018-09-11T17:10:08.215Z,25.20
2018-09-11T17:12:38.786Z,25.90
2018-09-11T17:15:08.064Z,25.80
2018-09-11T17:17:37.465Z,25.80
2018-09-11T17:20:06.630Z,25.70
2018-09-11T17:22:35.330Z,25.40
2018-09-11T17:25:04.194Z,25.30
2018-09-11T17:27:33.858Z,25.20
2018-09-11T17:30:02.736Z,25.00
2018-09-11T17:32:31.653Z,24.80
2018-09-11T17:35:00.563Z,24.80
2018-09-11T17:37:29.320Z,24.60
2018-09-11T17:39:58.185Z,24.50
2018-09-11T17:42:26.903Z,24.50
2018-09-11T17:44:55.692Z,24.40
2018-09-11T17:47:24.528Z,24.40
2018-09-11T17:49:53.355Z,24.30
2018-09-11T17:52:22.262Z,24.20
2018-09-11T17:54:50.933Z,24.10
2018-09-11T17:57:19.646Z,24.00
2018-09-11T17:59:48.394Z,23.90
2018-09-11T18:02:17.500Z,23.90
2018-09-11T18:04:46.316Z,23.70
2018-09-11T18:07:15.573Z,23.70
2018-09-11T18:09:44.407Z,23.70
2018-09-11T18:12:13.183Z,23.60
2018-09-11T18:14:41.938Z,23.50
2018-09-11T18:17:10.714Z,23.00
2018-09-11T18:19:39.704Z,23.40
2018-09-11T18:22:08.365Z,23.40
2018-09-11T18:24:37.123Z,23.40
2018-09-11T18:27:05.855Z,23.40
2018-09-11T18:29:34.858Z,23.40
2018-09-11T18:32:03.660Z,23.30
2018-09-11T18:34:33.044Z,23.10
2018-09-11T18:37:01.881Z,22.90
2018-09-11T18:39:30.842Z,22.80
2018-09-11T18:41:59.669Z,22.80
2018-09-11T18:44:28.355Z,22.60
2018-09-11T18:46:57.194Z,22.50
2018-09-11T18:49:26.002Z,22.50
2018-09-11T18:51:54.910Z,22.50
2018-09-11T18:54:23.859Z,22.40
2018-09-11T18:56:52.658Z,22.40
2018-09-11T18:59:21.411Z,22.30
2018-09-11T19:01:50.083Z,22.30
2018-09-11T19:04:21.720Z,22.20
2018-09-11T19:06:50.601Z,22.20
2018-09-11T19:09:19.465Z,22.20
2018-09-11T19:11:48.392Z,22.30
2018-09-11T19:14:21.124Z,22.20
2018-09-11T19:16:49.863Z,22.30
2018-09-11T19:19:18.449Z,22.30
2018-09-11T19:21:49.940Z,22.30
2018-09-11T19:24:18.674Z,21.80
2018-09-11T19:26:47.684Z,22.30
2018-09-11T19:29:16.511Z,22.30
2018-09-11T19:31:45.215Z,22.30
2018-09-11T19:34:14.129Z,22.20
2018-09-11T19:36:46.223Z,22.20
2018-09-11T19:39:28.863Z,22.20
2018-09-11T19:41:58.076Z,22.10
2018-09-11T19:44:31.166Z,22.00
2018-09-11T19:46:59.775Z,21.90
2018-09-11T19:49:28.788Z,21.90
2018-09-11T19:52:04.219Z,21.90
2018-09-11T19:54:38.181Z,21.90
2018-09-11T19:57:08.321Z,21.90
2018-09-11T19:59:37.504Z,21.90
2018-09-11T20:02:06.712Z,21.80
2018-09-11T20:04:35.452Z,22.30
2018-09-11T20:07:05.028Z,21.70
2018-09-11T20:09:36.469Z,21.60
2018-09-11T20:12:05.132Z,21.60
2018-09-11T20:14:34.627Z,21.50
2018-09-11T20:17:03.264Z,21.40
2018-09-11T20:19:32.482Z,21.40
2018-09-11T20:22:01.368Z,21.40
2018-09-11T20:24:30.042Z,21.40
2018-09-11T20:27:29.284Z,21.30
2018-09-11T20:29:57.956Z,20.70
2018-09-11T20:32:31.277Z,21.30
2018-09-11T20:34:59.963Z,21.10
2018-09-11T20:37:28.694Z,21.00
2018-09-11T20:39:57.459Z,20.90
2018-09-11T20:42:26.785Z,20.80
2018-09-11T20:44:55.472Z,20.80
2018-09-11T20:47:26.255Z,20.00
2018-09-11T20:49:55.058Z,20.70
2018-09-11T20:52:23.801Z,20.60
2018-09-11T20:54:53.491Z,20.60
2018-09-11T20:57:22.119Z,20.60
2018-09-11T20:59:51.335Z,20.50
2018-09-11T21:02:19.946Z,20.40
2018-09-11T21:04:48.614Z,18.60
2018-09-11T21:07:17.538Z,20.30
2018-09-11T21:09:47.206Z,20.30
2018-09-11T21:12:15.787Z,20.20
2018-09-11T21:14:44.622Z,20.20
2018-09-11T21:17:13.134Z,20.20
2018-09-11T21:19:42.012Z,20.10
2018-09-11T21:22:10.696Z,19.90
2018-09-11T21:24:42.476Z,19.90
2018-09-11T21:27:11.140Z,19.90
2018-09-11T21:29:42.870Z,19.90
2018-09-11T21:32:11.619Z,19.90
2018-09-11T21:34:40.336Z,19.90
2018-09-11T21:37:11.233Z,20.00
2018-09-11T21:39:39.935Z,19.90
2018-09-11T21:42:08.763Z,19.90
2018-09-11T21:44:37.374Z,19.80
2018-09-11T21:47:06.671Z,19.80
2018-09-11T21:49:35.379Z,19.70
2018-09-11T21:52:04.047Z,19.60
2018-09-11T21:54:32.638Z,19.60
2018-09-11T21:57:01.402Z,19.60
2018-09-11T21:59:29.943Z,17.80
2018-09-11T22:02:02.173Z,19.40
2018-09-11T22:04:31.834Z,19.30
2018-09-11T22:07:00.498Z,19.20
2018-09-11T22:09:31.003Z,19.20
2018-09-11T22:11:59.771Z,19.30
2018-09-11T22:14:28.371Z,19.30
2018-09-11T22:16:57.037Z,19.30
2018-09-11T22:19:30.365Z,19.30
2018-09-11T22:21:58.929Z,18.20
2018-09-11T22:24:27.583Z,19.20
2018-09-11T22:26:56.479Z,19.20
2018-09-11T22:29:25.341Z,19.10
2018-09-11T22:31:53.975Z,19.20
2018-09-11T22:34:24.216Z,19.20
2018-09-11T22:36:53.107Z,19.20
2018-09-11T22:39:21.885Z,19.20
2018-09-11T22:41:50.489Z,19.20
2018-09-11T22:44:19.212Z,17.80
2018-09-11T22:46:47.836Z,19.10
2018-09-11T22:49:18.681Z,19.00
2018-09-11T22:51:47.298Z,19.00
2018-09-11T22:54:16.828Z,19.00
2018-09-11T22:56:45.510Z,18.90
2018-09-11T22:59:14.191Z,19.00
2018-09-11T23:01:42.767Z,19.70
2018-09-11T23:04:11.509Z,18.90
2018-09-11T23:06:40.223Z,18.80
2018-09-11T23:09:10.550Z,18.80
2018-09-11T23:11:39.170Z,18.80
2018-09-11T23:14:09.307Z,18.80
2018-09-11T23:16:37.998Z,18.70
2018-09-11T23:19:06.647Z,18.70
2018-09-11T23:21:35.461Z,18.70
2018-09-11T23:24:04.689Z,19.90
2018-09-11T23:26:33.439Z,18.70
2018-09-11T23:29:03.895Z,18.60
2018-09-11T23:31:32.710Z,17.00
2018-09-11T23:34:01.388Z,18.40
2018-09-11T23:36:30.010Z,18.40
2018-09-11T23:38:58.770Z,18.30
2018-09-11T23:41:28.377Z,18.30
2018-09-11T23:43:57.036Z,18.40
2018-09-11T23:46:25.657Z,18.40
2018-09-11T23:48:54.249Z,18.50
2018-09-11T23:51:22.833Z,18.50
2018-09-11T23:53:51.480Z,18.60
2018-09-11T23:56:20.743Z,18.60
2018-09-11T23:58:49.827Z,18.50
